Historyczne dane pomiarowe

Dodano dane terminowe – wersja testowa.

Dane z okresu 1951-2019

Wersja bazy: 1.34 [2019-03-16, lista zmian], aktualizacja planowana na 2019-04-15

Dane meteo z obszaru Polski uzyskane na podstawie danych udostępnionych przez Instytut Meteorologii i Gospodarki Wodnej – Państwowy Instytut Badawczy.

 

Wybierz Datę:    

       

TemperaturaWilgotnośćWiatrCiśnienieOpadyŚniegCzas trwania zjawisk
 Stacja t tx tn tng RH VA  wxwx mslp ppp RRR   cm mm wxwxwxwxwxwxwx
1956-10-10 3.9 10.1 -0.2 -0.5 83.0- 5.7 1.7---- 0.0------------
1956-10-09 7.0 8.4 1.8 2.8 95.8- 8.0 3.7---- 2.0------------
1956-10-08 3.4 9.5 -0.2 -0.2 88.5- 4.7 2.7---- 0.0------------
1956-10-07 5.4 9.1 3.3 10.1 85.5- 5.0 6.7---- 0.0------------
1956-10-06 5.6 7.2 4.5 7.5 93.3- 8.0 5.3---- 13.9------------
1956-10-05 8.6 14.1 6.2 9.2 85.3- 4.7 2.3---- 0.9------------
1956-10-04 10.1 13.4 5.9 1.8 94.8- 5.0 1.0---- 1.7------------
1956-10-03 13.0 17.7 8.6 8.1 85.5- 4.3 4.3---- 0.0------------
1956-10-02 15.8 25.3 10.1 7.0 82.3- 3.0 3.7---- 0.0------------
1956-10-01 16.4 24.3 7.7 3.9 78.0- 2.7 3.7---- 0.0------------
1956-09-30 12.4 19.3 8.4 6.2 85.0- 4.7 1.7---- 0.0------------
1956-09-29 15.9 19.6 12.6 5.1 84.3- 5.7 3.3---- 0.0------------
1956-09-28 14.7 19.1 11.6 9.8 79.5- 6.3 5.0---- 0.0------------
1956-09-27 16.3 23.3 10.6 0.4 77.5- 2.7 2.3---- 0.0------------
1956-09-26 15.9 23.1 7.2 4.3 62.0- 0.0 4.3---- 0.3------------
1956-09-25 12.8 22.5 3.2 1.1 77.3- 0.7 1.7---- 0.0------------
1956-09-24 9.4 16.1 4.1 2.7 69.5- 0.0 6.0---- 0.0------------
1956-09-23 12.1 19.4 7.3 5.5 74.8- 0.3 4.3---- 0.0------------
1956-09-22 12.3 19.5 5.3 1.8 77.3- 0.0 2.3---- 0.0------------
1956-09-21 11.3 19.8 3.6 0.2 83.5- 0.7 0.0---- 0.0------------
1956-09-20 10.0 17.7 2.8 1.7 78.3- 3.7 1.7---- 0.0------------
1956-09-19 8.7 16.8 0.9 -0.6 80.3- 1.7 0.7---- 0.0------------
1956-09-18 8.8 13.3 3.7 1.0 86.3- 3.0 2.7---- 0.0------------
1956-09-17 8.0 11.3 6.7 7.1 95.3- 5.0 2.7---- 4.4------------
1956-09-16 10.4 15.1 5.1 4.9 81.3- 6.3 3.0---- 1.6------------
1956-09-15 8.8 15.3 4.9 4.7 91.3- 5.3 3.0---- 0.0------------
1956-09-14 9.8 15.1 5.6 4.7 88.0- 3.3 1.7---- 0.0------------
1956-09-13 9.6 14.8 7.0 6.0 88.3- 6.7 4.0---- 2.2------------
1956-09-12 10.2 16.5 7.4 11.4 91.5- 6.0 5.0---- 13.4------------
1956-09-11 13.9 17.1 12.0 10.0 96.3- 6.0 1.3---- 4.3------------
1956-09-10 16.1 21.6 7.8 3.9 78.8- 4.3 2.3---- 8.4------------
1956-09-09 13.7 19.7 9.7 8.4 90.3- 4.0 2.0---- 0.0------------
1956-09-08 14.7 20.6 10.1 4.5 85.3- 6.3 2.3---- 2.4------------
1956-09-07 15.8 22.5 11.5 10.2 79.8- 4.3 1.7---- 0.0------------
1956-09-06 15.8 22.2 8.3 7.6 77.0- 1.0 1.3---- 0.0------------
1956-09-05 14.2 20.5 8.5 6.0 78.5- 2.7 2.0---- 0.0------------
1956-09-04 13.4 20.7 12.1 12.6 93.0- 5.3 3.3---- 0.3------------
1956-09-03 20.8 29.1 11.7 9.3 78.3- 0.7 2.3---- 1.7------------
1956-09-02 18.5 24.7 10.9 8.6 74.8- 1.3 2.3---- 0.0------------
1956-09-01 15.9 21.6 7.7 6.4 75.3- 3.7 2.3---- 0.0------------
1956-08-31 12.7 19.1 9.7 9.7 85.0- 4.7 1.0---- 0.0------------
1956-08-30 12.9 16.1 11.6 14.0 94.0- 8.0 4.3---- 0.0------------
1956-08-29 16.7 21.3 13.7 10.4 81.5- 6.3 1.7---- 1.1------------
1956-08-28 18.1 23.2 15.8 12.8 79.8- 5.7 3.3---- 1.1------------
1956-08-27 19.6 25.2 10.7 8.8 77.0- 2.3 3.3---- 0.0------------
1956-08-26 15.6 21.3 9.4 6.3 74.8- 2.3 5.3---- 0.0------------
1956-08-25 14.5 18.4 8.3 7.3 66.8- 6.7 5.0---- 0.0------------
1956-08-24 12.0 17.6 7.5 7.4 84.0- 5.7 7.3---- 4.6------------
1956-08-23 12.9 15.5 10.8 11.1 97.0- 8.0 5.3---- 68.9------------
1956-08-22 15.8 21.0 10.9 6.9 78.8- 5.0 1.3---- 0.3------------
1956-08-21 15.0 19.7 13.4 13.7 87.5- 6.7 1.7---- 0.0------------
1956-08-20 18.5 24.6 12.3 11.2 74.0- 3.3 2.3---- 1.9------------
1956-08-19 18.3 24.4 15.2 12.0 71.8- 5.7 3.7---- 0.0------------
1956-08-18 18.0 23.4 12.2 9.8 80.5- 5.3 1.0---- 0.0------------
1956-08-17 16.3 23.1 12.2 9.9 79.8- 7.3 3.0---- 0.6------------
1956-08-16 13.7 17.7 8.7 6.5 82.8- 7.7 4.3---- 1.7------------
1956-08-15 13.3 19.5 9.9 7.3 81.8- 2.3 5.7---- 0.0------------
1956-08-14 17.5 25.6 9.1 6.5 79.0- 5.7 4.0---- 6.2------------
1956-08-13 14.4 20.3 8.3 5.9 82.8- 4.0 1.7---- 0.0------------
1956-08-12 13.6 16.4 11.7 11.4 92.3- 6.3 2.7---- 1.1------------
2080.8 ms

 

Źródłem pochodzenia danych jest Instytut Meteorologii i Gospodarki Wodnej – Państwowy Instytut Badawczy. Dane Instytutu Meteorologii i Gospodarki Wodnej – Państwowego Instytutu Badawczego zostały przetworzone.

Dane źródłowe można odnaleźć na stronie https://dane.imgw.pl